createdAt,value
2022-12-18T00:00:31.446Z,42.88
2022-12-18T00:01:37.305Z,44.78
2022-12-18T00:02:39.007Z,43.92
2022-12-18T00:03:41.102Z,44.20
2022-12-18T00:04:43.021Z,43.75
2022-12-18T00:05:51.249Z,45.25
2022-12-18T00:06:53.053Z,42.47
2022-12-18T00:07:54.642Z,45.78
2022-12-18T00:08:57.065Z,46.63
2022-12-18T00:09:58.681Z,45.30
2022-12-18T00:11:07.485Z,41.57
2022-12-18T00:13:17.366Z,44.30
2022-12-18T00:14:18.989Z,42.40
2022-12-18T00:15:20.775Z,45.85
2022-12-18T00:16:23.509Z,43.40
2022-12-18T00:17:25.520Z,46.93
2022-12-18T00:18:27.139Z,39.45
2022-12-18T00:19:28.734Z,45.80
2022-12-18T00:20:30.383Z,48.67
2022-12-18T00:21:32.718Z,44.78
2022-12-18T00:22:34.283Z,45.78
2022-12-18T00:23:36.777Z,45.47
2022-12-18T00:24:38.704Z,41.67
2022-12-18T00:25:40.356Z,44.70
2022-12-18T00:26:41.951Z,44.75
2022-12-18T00:27:43.582Z,40.65
2022-12-18T00:28:45.397Z,45.30
2022-12-18T00:29:46.995Z,44.17
2022-12-18T00:30:52.427Z,43.33
2022-12-18T00:31:54.075Z,42.25
2022-12-18T00:32:55.715Z,48.28
2022-12-18T00:33:57.514Z,43.28
2022-12-18T00:34:59.107Z,44.13
2022-12-18T00:36:11.801Z,44.97
2022-12-18T00:37:18.279Z,43.88
2022-12-18T00:38:21.556Z,42.10
2022-12-18T00:39:23.219Z,42.53
2022-12-18T00:40:24.800Z,41.17
2022-12-18T00:41:45.148Z,46.00
2022-12-18T00:42:58.881Z,45.80
2022-12-18T00:44:00.456Z,44.97
2022-12-18T00:45:02.025Z,42.15
2022-12-18T00:46:03.778Z,39.70
2022-12-18T00:47:05.488Z,42.70
2022-12-18T00:48:07.268Z,40.03
2022-12-18T00:49:08.861Z,44.00
2022-12-18T00:50:10.705Z,41.85
2022-12-18T00:51:12.416Z,40.22
2022-12-18T00:52:14.015Z,39.38
2022-12-18T00:53:15.660Z,42.92
2022-12-18T00:54:17.383Z,40.88
2022-12-18T00:55:18.995Z,40.90
2022-12-18T00:56:23.223Z,42.95
2022-12-18T00:57:24.805Z,45.88
2022-12-18T00:58:26.506Z,44.60
2022-12-18T00:59:28.143Z,43.25
2022-12-18T01:00:29.751Z,46.08
2022-12-18T01:01:31.430Z,43.53
2022-12-18T01:02:33.245Z,41.78
2022-12-18T01:03:35.064Z,42.67
2022-12-18T01:04:36.749Z,45.38
2022-12-18T01:05:41.051Z,46.97
2022-12-18T01:06:42.636Z,45.13
2022-12-18T01:07:44.258Z,42.60
2022-12-18T01:08:45.938Z,40.90
2022-12-18T01:09:47.511Z,41.10
2022-12-18T01:10:49.094Z,41.30
2022-12-18T01:11:50.686Z,40.42
2022-12-18T01:12:52.303Z,46.30
2022-12-18T01:13:54.524Z,49.28
2022-12-18T01:14:56.103Z,45.37
2022-12-18T01:15:57.702Z,43.67
2022-12-18T01:16:59.350Z,42.97
2022-12-18T01:18:00.935Z,42.90
2022-12-18T01:19:02.562Z,46.38
2022-12-18T01:20:04.671Z,46.80
2022-12-18T01:21:09.980Z,45.53
2022-12-18T01:22:11.556Z,45.63
2022-12-18T01:23:13.189Z,41.65
2022-12-18T01:24:14.863Z,45.97
2022-12-18T01:25:16.498Z,44.53
2022-12-18T01:26:18.080Z,49.35
2022-12-18T01:27:19.690Z,43.57
2022-12-18T01:28:21.288Z,43.80
2022-12-18T01:29:22.910Z,45.80
2022-12-18T01:30:24.551Z,50.05
2022-12-18T01:31:27.799Z,42.65
2022-12-18T01:32:31.560Z,40.17
2022-12-18T01:33:33.131Z,49.77
2022-12-18T01:34:36.898Z,46.47
2022-12-18T01:35:44.857Z,50.60
2022-12-18T01:36:46.439Z,41.80
2022-12-18T01:37:48.007Z,45.50
2022-12-18T01:38:49.763Z,43.15
2022-12-18T01:39:53.448Z,51.27
2022-12-18T01:41:01.594Z,48.20
2022-12-18T01:42:03.875Z,46.05
2022-12-18T01:43:05.429Z,47.70
2022-12-18T01:44:45.635Z,44.08
2022-12-18T01:45:47.342Z,47.33
2022-12-18T01:46:48.969Z,43.80
2022-12-18T01:48:01.943Z,56.30
2022-12-18T01:49:04.192Z,55.08
2022-12-18T01:50:17.781Z,58.15
2022-12-18T01:51:19.335Z,49.10
2022-12-18T01:52:21.206Z,46.55
2022-12-18T01:53:23.401Z,49.40
2022-12-18T01:54:24.969Z,53.22
2022-12-18T01:55:29.175Z,52.35
2022-12-18T01:56:30.751Z,53.75
2022-12-18T01:57:32.402Z,49.05
2022-12-18T01:58:42.175Z,51.73
2022-12-18T01:59:44.164Z,49.92
2022-12-18T02:00:45.856Z,48.25
2022-12-18T02:01:47.940Z,48.60
2022-12-18T02:02:49.718Z,46.05
2022-12-18T02:03:52.396Z,48.30
2022-12-18T02:04:53.974Z,49.97
2022-12-18T02:06:11.212Z,49.72
2022-12-18T02:07:28.354Z,51.47
2022-12-18T02:08:41.411Z,45.10
2022-12-18T02:10:06.332Z,50.10
2022-12-18T02:11:38.380Z,45.33
2022-12-18T02:12:45.872Z,50.72
2022-12-18T02:13:56.935Z,44.60
2022-12-18T02:15:08.348Z,46.58
2022-12-18T02:16:13.586Z,44.75
2022-12-18T02:17:24.074Z,58.38
2022-12-18T02:18:29.175Z,53.90
2022-12-18T02:20:07.913Z,47.63
2022-12-18T02:21:21.591Z,46.70
2022-12-18T02:22:44.226Z,46.05
2022-12-18T02:23:54.537Z,49.80
2022-12-18T02:25:07.545Z,45.42
2022-12-18T02:26:14.408Z,46.33
2022-12-18T02:27:15.981Z,47.20
2022-12-18T02:28:17.676Z,53.03
2022-12-18T02:29:22.997Z,49.00
2022-12-18T02:30:24.645Z,47.65
2022-12-18T02:31:31.683Z,47.03
2022-12-18T02:32:36.469Z,45.73
2022-12-18T02:33:38.640Z,47.10
2022-12-18T02:34:41.029Z,52.83
2022-12-18T02:35:42.665Z,51.80
2022-12-18T02:36:44.754Z,53.03
2022-12-18T02:37:46.355Z,53.55
2022-12-18T02:38:48.055Z,47.43
2022-12-18T02:39:49.945Z,48.80
2022-12-18T02:40:51.579Z,45.05
2022-12-18T02:41:53.390Z,47.67
2022-12-18T02:42:55.346Z,51.85
2022-12-18T02:43:58.653Z,45.40
2022-12-18T02:45:00.228Z,42.78
2022-12-18T02:46:01.929Z,51.35
2022-12-18T02:47:03.642Z,50.13
2022-12-18T02:48:05.433Z,47.97
2022-12-18T02:49:28.867Z,51.20
2022-12-18T02:50:39.151Z,48.20
2022-12-18T02:51:57.006Z,43.80
2022-12-18T02:53:19.535Z,47.78
2022-12-18T02:54:51.361Z,46.35
2022-12-18T02:56:04.736Z,44.38
2022-12-18T02:57:36.840Z,47.23
2022-12-18T02:58:47.448Z,51.55
2022-12-18T02:59:57.376Z,44.25
2022-12-18T03:01:08.958Z,48.17
2022-12-18T03:02:25.824Z,48.63
2022-12-18T03:03:33.735Z,51.55
2022-12-18T03:04:39.923Z,47.40
2022-12-18T03:05:46.553Z,48.63
2022-12-18T03:06:52.250Z,54.33
2022-12-18T03:07:59.447Z,45.95
2022-12-18T03:09:07.408Z,48.50
2022-12-18T03:10:10.436Z,52.13
2022-12-18T03:11:13.088Z,44.67
2022-12-18T03:12:42.386Z,48.90
2022-12-18T03:13:49.622Z,43.60
2022-12-18T03:15:06.159Z,47.60
2022-12-18T03:16:10.035Z,50.08
2022-12-18T03:17:12.379Z,49.70
2022-12-18T03:18:47.837Z,49.20
2022-12-18T03:19:49.481Z,45.40
2022-12-18T03:20:51.079Z,47.60
2022-12-18T03:21:56.930Z,46.42
2022-12-18T03:23:05.553Z,48.22
2022-12-18T03:24:07.961Z,50.47
2022-12-18T03:25:11.461Z,53.40
2022-12-18T03:26:14.969Z,47.33
2022-12-18T03:27:18.650Z,44.97
2022-12-18T03:28:22.037Z,46.67
2022-12-18T03:29:28.442Z,49.70
2022-12-18T03:30:31.859Z,46.47
2022-12-18T03:31:33.450Z,43.47
2022-12-18T03:32:40.544Z,51.00
2022-12-18T03:33:53.285Z,51.92
2022-12-18T03:34:55.066Z,55.97
2022-12-18T03:35:56.626Z,48.42
2022-12-18T03:36:58.708Z,45.77
2022-12-18T03:38:00.303Z,51.35
2022-12-18T03:39:01.878Z,49.22
2022-12-18T03:40:04.696Z,53.38
2022-12-18T03:41:08.826Z,49.35
2022-12-18T03:42:29.533Z,51.42
2022-12-18T03:43:40.250Z,46.53
2022-12-18T03:44:56.763Z,45.60
2022-12-18T03:46:06.519Z,53.03
2022-12-18T03:47:21.024Z,53.20
2022-12-18T03:48:36.473Z,50.88
2022-12-18T03:49:48.861Z,50.00
2022-12-18T03:51:19.476Z,47.78
2022-12-18T03:52:32.963Z,54.95
2022-12-18T03:53:48.136Z,47.83
2022-12-18T03:54:49.713Z,51.78
2022-12-18T03:55:51.633Z,53.85
2022-12-18T03:56:58.536Z,54.80
2022-12-18T03:58:00.295Z,65.15
2022-12-18T03:59:02.099Z,53.83
2022-12-18T04:00:07.570Z,53.85
2022-12-18T04:01:09.331Z,52.22
2022-12-18T04:02:11.114Z,52.33
2022-12-18T04:03:12.868Z,51.88
2022-12-18T04:04:14.863Z,53.53
2022-12-18T04:05:16.546Z,57.17
2022-12-18T04:06:18.131Z,48.95
2022-12-18T04:07:20.021Z,50.63
2022-12-18T04:08:22.301Z,53.23
2022-12-18T04:09:23.921Z,50.65
2022-12-18T04:10:25.564Z,47.95
2022-12-18T04:11:27.205Z,51.10
2022-12-18T04:12:29.965Z,51.72
2022-12-18T04:13:37.382Z,51.10
2022-12-18T04:14:39.192Z,47.63
2022-12-18T04:15:40.805Z,45.78
2022-12-18T04:16:42.431Z,50.53
2022-12-18T04:17:50.787Z,44.42
2022-12-18T04:18:53.088Z,46.50
2022-12-18T04:19:54.869Z,47.88
2022-12-18T04:20:56.474Z,44.17
2022-12-18T04:21:58.051Z,49.53
2022-12-18T04:22:59.679Z,47.53
2022-12-18T04:24:01.322Z,48.15
2022-12-18T04:25:02.927Z,49.25
2022-12-18T04:26:04.607Z,44.97
2022-12-18T04:27:07.036Z,48.20
2022-12-18T04:28:08.622Z,46.90
2022-12-18T04:29:10.259Z,46.90
2022-12-18T04:30:12.140Z,48.72
2022-12-18T04:31:13.959Z,54.22
2022-12-18T04:32:15.734Z,52.43
2022-12-18T04:33:17.438Z,52.75
2022-12-18T04:34:19.027Z,48.63
2022-12-18T04:35:20.631Z,44.67
2022-12-18T04:36:22.286Z,52.67
2022-12-18T04:37:23.905Z,52.60
2022-12-18T04:38:25.579Z,49.43
2022-12-18T04:39:27.214Z,52.00
2022-12-18T04:40:28.777Z,50.67
2022-12-18T04:41:30.394Z,49.67
2022-12-18T04:42:32.039Z,48.95
2022-12-18T04:43:33.998Z,51.58
2022-12-18T04:44:35.570Z,49.87
2022-12-18T04:45:37.155Z,48.80
2022-12-18T04:46:38.810Z,56.38
2022-12-18T04:47:40.544Z,49.10
2022-12-18T04:48:42.138Z,50.95
2022-12-18T04:49:43.710Z,50.37
2022-12-18T04:50:45.324Z,47.35
2022-12-18T04:51:46.876Z,49.42
2022-12-18T04:52:48.843Z,56.45
2022-12-18T04:53:50.448Z,44.15
2022-12-18T04:54:52.018Z,50.83
2022-12-18T04:56:07.043Z,49.90
2022-12-18T04:57:08.637Z,51.78
2022-12-18T04:58:10.288Z,50.67
2022-12-18T04:59:11.957Z,53.78
2022-12-18T05:00:13.963Z,88.85
2022-12-18T05:01:16.933Z,231.43
2022-12-18T05:02:18.773Z,628.30
2022-12-18T05:03:20.478Z,746.95
2022-12-18T05:04:22.056Z,442.83
2022-12-18T05:05:23.686Z,257.73
2022-12-18T05:06:25.323Z,210.73
2022-12-18T05:07:26.921Z,117.03
2022-12-18T05:08:28.472Z,75.20
2022-12-18T05:09:30.065Z,60.58
2022-12-18T05:10:37.725Z,49.45
2022-12-18T05:11:40.027Z,51.78
2022-12-18T05:12:59.629Z,47.22
2022-12-18T05:14:03.005Z,52.20
2022-12-18T05:15:04.990Z,46.65
2022-12-18T05:16:07.431Z,57.65
2022-12-18T05:17:09.115Z,48.45
2022-12-18T05:18:10.767Z,51.85
2022-12-18T05:19:12.488Z,52.77
2022-12-18T05:20:14.914Z,50.33
2022-12-18T05:21:16.559Z,54.75
2022-12-18T05:22:18.133Z,50.90
2022-12-18T05:23:19.886Z,48.33
2022-12-18T05:24:21.520Z,48.23
2022-12-18T05:25:23.307Z,51.15
2022-12-18T05:26:24.949Z,46.88
2022-12-18T05:27:26.614Z,48.60
2022-12-18T05:28:29.271Z,47.38
2022-12-18T05:29:30.924Z,50.22
2022-12-18T05:30:32.533Z,51.03
2022-12-18T05:31:39.432Z,50.72
2022-12-18T05:32:41.527Z,49.17
2022-12-18T05:33:43.716Z,44.08
2022-12-18T05:34:45.527Z,47.92
2022-12-18T05:36:12.468Z,46.07
2022-12-18T05:37:14.086Z,53.20
2022-12-18T05:38:15.676Z,47.70
2022-12-18T05:39:17.245Z,52.78
2022-12-18T05:40:18.967Z,50.55
2022-12-18T05:41:20.699Z,53.50
2022-12-18T05:42:22.362Z,51.60
2022-12-18T05:43:24.164Z,55.85
2022-12-18T05:44:25.783Z,52.20
2022-12-18T05:45:27.814Z,50.83
2022-12-18T05:46:30.631Z,53.07
2022-12-18T05:47:32.243Z,47.42
2022-12-18T05:48:33.889Z,51.72
2022-12-18T05:49:35.477Z,46.83
2022-12-18T05:50:37.968Z,47.33
2022-12-18T05:51:39.527Z,50.22
2022-12-18T05:52:42.050Z,46.40
2022-12-18T05:53:44.152Z,45.05
2022-12-18T05:54:45.832Z,48.45
2022-12-18T05:55:48.071Z,51.28
2022-12-18T05:56:49.716Z,44.72
2022-12-18T05:57:51.298Z,49.93
2022-12-18T05:58:54.005Z,44.88
2022-12-18T05:59:55.676Z,48.50
2022-12-18T06:00:57.298Z,51.45
2022-12-18T06:01:59.036Z,53.10
2022-12-18T06:03:00.804Z,53.67
2022-12-18T06:04:02.698Z,53.45
2022-12-18T06:05:05.383Z,51.53
2022-12-18T06:06:21.085Z,51.70
2022-12-18T06:07:22.697Z,51.05
2022-12-18T06:08:24.264Z,49.63
2022-12-18T06:09:26.035Z,52.47
2022-12-18T06:10:27.610Z,51.13
2022-12-18T06:11:30.497Z,52.95
2022-12-18T06:12:32.374Z,52.75
2022-12-18T06:13:33.957Z,49.15
2022-12-18T06:14:35.532Z,51.27
2022-12-18T06:15:37.772Z,50.72
2022-12-18T06:16:39.969Z,47.22
2022-12-18T06:17:41.555Z,48.70
2022-12-18T06:18:43.137Z,53.55
2022-12-18T06:19:45.518Z,50.53
2022-12-18T06:20:57.093Z,47.65
2022-12-18T06:21:59.973Z,50.85
2022-12-18T06:23:01.611Z,50.70
2022-12-18T06:24:03.176Z,51.97
2022-12-18T06:25:05.452Z,53.28
2022-12-18T06:26:08.624Z,53.87
2022-12-18T06:27:10.205Z,51.63
2022-12-18T06:28:11.769Z,52.25
2022-12-18T06:29:13.370Z,53.28
2022-12-18T06:30:15.061Z,49.33
2022-12-18T06:31:16.879Z,56.58
2022-12-18T06:32:18.496Z,45.72
2022-12-18T06:33:20.103Z,55.35
2022-12-18T06:34:21.680Z,48.88
2022-12-18T06:35:23.429Z,47.22
2022-12-18T06:36:25.094Z,52.35
2022-12-18T06:37:27.198Z,48.92
2022-12-18T06:38:28.867Z,53.33
2022-12-18T06:39:30.584Z,51.78
2022-12-18T06:40:32.224Z,57.17
2022-12-18T06:41:33.943Z,55.40
2022-12-18T06:42:35.574Z,55.53
2022-12-18T06:43:37.775Z,55.63
2022-12-18T06:44:39.893Z,56.25
2022-12-18T06:45:41.482Z,56.08
2022-12-18T06:46:43.136Z,54.55
2022-12-18T06:47:44.907Z,58.92
2022-12-18T06:48:50.880Z,62.77
2022-12-18T06:49:52.473Z,63.03
2022-12-18T06:50:54.171Z,55.75
2022-12-18T06:51:55.801Z,62.90
2022-12-18T06:52:57.486Z,61.47
2022-12-18T06:53:59.067Z,66.47
2022-12-18T06:55:00.859Z,61.33
2022-12-18T06:56:10.333Z,60.22
2022-12-18T06:57:12.579Z,67.50
2022-12-18T06:58:14.226Z,66.25
2022-12-18T06:59:15.832Z,62.40
2022-12-18T07:00:17.646Z,69.97
2022-12-18T07:01:19.400Z,61.97
2022-12-18T07:02:21.155Z,61.35
2022-12-18T07:03:22.990Z,62.47
2022-12-18T07:04:29.672Z,56.90
2022-12-18T07:05:31.277Z,52.95
2022-12-18T07:06:32.868Z,56.30
2022-12-18T07:07:35.427Z,52.95
2022-12-18T07:08:37.142Z,57.50
2022-12-18T07:09:38.740Z,54.42
2022-12-18T07:10:46.954Z,48.83
2022-12-18T07:11:50.538Z,52.42
2022-12-18T07:12:52.149Z,54.07
2022-12-18T07:13:54.139Z,55.88
2022-12-18T07:14:56.047Z,57.05
2022-12-18T07:16:06.799Z,57.70
2022-12-18T07:17:10.204Z,57.70
2022-12-18T07:18:11.818Z,56.67
2022-12-18T07:19:13.388Z,54.63
2022-12-18T07:20:15.115Z,53.92
2022-12-18T07:21:18.437Z,58.22
2022-12-18T07:22:20.063Z,54.60
2022-12-18T07:23:21.670Z,59.17
2022-12-18T07:24:23.322Z,55.80
2022-12-18T07:25:24.989Z,65.72
2022-12-18T07:26:27.398Z,63.78
2022-12-18T07:27:29.061Z,59.88
2022-12-18T07:28:31.342Z,58.97
2022-12-18T07:29:32.954Z,55.97
2022-12-18T07:30:34.546Z,53.93
2022-12-18T07:31:36.199Z,65.53
2022-12-18T07:32:37.865Z,68.47
2022-12-18T07:33:39.810Z,63.33
2022-12-18T07:34:41.883Z,57.75
2022-12-18T07:35:43.508Z,61.92
2022-12-18T07:36:45.092Z,57.72
2022-12-18T07:37:46.733Z,58.00
2022-12-18T07:38:49.198Z,61.55
2022-12-18T07:39:50.843Z,56.40
2022-12-18T07:40:53.535Z,58.60
2022-12-18T07:42:13.702Z,52.67
2022-12-18T07:43:15.306Z,56.00
2022-12-18T07:44:17.035Z,63.13
2022-12-18T07:45:18.632Z,63.80
2022-12-18T07:46:20.298Z,63.67
2022-12-18T07:47:21.925Z,60.72
2022-12-18T07:48:23.535Z,60.43
2022-12-18T07:49:25.184Z,57.97
2022-12-18T07:50:26.863Z,66.32
2022-12-18T07:51:28.466Z,62.17
2022-12-18T07:52:30.038Z,62.55
2022-12-18T07:53:31.983Z,74.53
2022-12-18T07:54:33.623Z,69.00
2022-12-18T07:55:54.785Z,73.68
2022-12-18T07:56:56.809Z,81.63
2022-12-18T07:58:01.125Z,75.80
2022-12-18T07:59:03.344Z,63.13
2022-12-18T08:00:05.446Z,66.53
2022-12-18T08:01:08.467Z,61.80
2022-12-18T08:02:10.608Z,65.28
2022-12-18T08:03:15.422Z,61.55
2022-12-18T08:04:17.230Z,66.75
2022-12-18T08:05:18.865Z,67.97
2022-12-18T08:06:22.507Z,57.72
2022-12-18T08:07:26.202Z,63.30
2022-12-18T08:08:28.001Z,60.25
2022-12-18T08:09:29.638Z,60.40
2022-12-18T08:10:31.285Z,57.78
2022-12-18T08:11:32.950Z,54.65
2022-12-18T08:12:34.531Z,57.53
2022-12-18T08:13:37.000Z,56.63
2022-12-18T08:14:38.761Z,57.22
2022-12-18T08:15:40.395Z,62.22
2022-12-18T08:16:42.036Z,60.17
2022-12-18T08:17:43.632Z,62.83
2022-12-18T08:18:45.269Z,59.90
2022-12-18T08:19:46.839Z,65.17
2022-12-18T08:20:48.480Z,62.08
2022-12-18T08:21:50.088Z,62.38
2022-12-18T08:22:51.723Z,64.45
2022-12-18T08:23:53.886Z,68.70
2022-12-18T08:24:55.460Z,68.53
2022-12-18T08:25:59.371Z,63.50
2022-12-18T08:28:22.587Z,65.88
2022-12-18T08:29:24.362Z,60.83
2022-12-18T08:30:26.045Z,59.95
2022-12-18T08:31:28.529Z,56.78
2022-12-18T08:32:30.632Z,61.30
2022-12-18T08:33:32.431Z,63.67
2022-12-18T08:34:34.064Z,60.90
2022-12-18T08:35:42.477Z,62.15
2022-12-18T08:36:47.180Z,63.78
2022-12-18T08:37:48.760Z,58.55
2022-12-18T08:38:50.360Z,60.53
2022-12-18T08:39:51.984Z,64.03
2022-12-18T08:41:05.901Z,58.85
2022-12-18T08:42:25.913Z,59.67
2022-12-18T08:43:45.896Z,66.32
2022-12-18T08:44:47.558Z,63.30
2022-12-18T08:45:49.220Z,58.90
2022-12-18T08:46:50.843Z,58.95
2022-12-18T08:47:52.431Z,60.38
2022-12-18T08:48:54.678Z,59.40
2022-12-18T08:49:56.322Z,61.95
2022-12-18T08:50:58.538Z,66.70
2022-12-18T08:52:00.129Z,64.73
2022-12-18T08:53:02.095Z,69.65
2022-12-18T08:54:03.911Z,70.07
2022-12-18T08:55:09.004Z,70.38
2022-12-18T08:56:10.644Z,59.95
2022-12-18T08:57:12.206Z,53.97
2022-12-18T08:58:13.792Z,55.30
2022-12-18T08:59:19.364Z,58.45
2022-12-18T09:00:21.283Z,67.95
2022-12-18T09:01:23.437Z,65.72
2022-12-18T09:02:25.189Z,62.20
2022-12-18T09:03:26.979Z,66.55
2022-12-18T09:04:28.619Z,55.92
2022-12-18T09:05:30.732Z,63.50
2022-12-18T09:06:32.403Z,67.32
2022-12-18T09:07:34.137Z,64.18
2022-12-18T09:08:35.811Z,66.43
2022-12-18T09:09:37.392Z,63.25
2022-12-18T09:10:45.693Z,66.70
2022-12-18T09:11:47.330Z,60.63
2022-12-18T09:12:48.920Z,67.38
2022-12-18T09:13:51.215Z,60.15
2022-12-18T09:14:52.870Z,59.30
2022-12-18T09:15:55.205Z,67.35
2022-12-18T09:16:56.905Z,62.05
2022-12-18T09:17:58.571Z,68.03
2022-12-18T09:19:00.847Z,63.22
2022-12-18T09:20:02.529Z,60.95
2022-12-18T09:21:18.085Z,59.63
2022-12-18T09:22:19.678Z,56.80
2022-12-18T09:23:21.564Z,60.08
2022-12-18T09:24:23.179Z,59.22
2022-12-18T09:25:24.835Z,58.88
2022-12-18T09:26:27.317Z,54.13
2022-12-18T09:27:28.943Z,60.85
2022-12-18T09:28:30.567Z,59.53
2022-12-18T09:29:32.258Z,64.28
2022-12-18T09:30:35.175Z,53.92
2022-12-18T09:31:37.572Z,60.88
2022-12-18T09:32:39.213Z,60.10
2022-12-18T09:33:40.814Z,56.15
2022-12-18T09:34:42.449Z,63.35
2022-12-18T09:35:45.353Z,55.42
2022-12-18T09:36:47.413Z,60.42
2022-12-18T09:37:49.081Z,58.17
2022-12-18T09:38:50.850Z,59.10
2022-12-18T09:39:52.454Z,56.67
2022-12-18T09:40:57.001Z,55.53
2022-12-18T09:41:59.321Z,52.22
2022-12-18T09:43:03.157Z,55.13
2022-12-18T09:44:26.112Z,57.78
2022-12-18T09:45:27.754Z,49.05
2022-12-18T09:46:35.781Z,54.37
2022-12-18T09:47:37.835Z,47.42
2022-12-18T09:48:41.790Z,49.92
2022-12-18T09:49:45.523Z,53.38
2022-12-18T09:50:47.195Z,54.33
2022-12-18T09:51:52.407Z,52.75
2022-12-18T09:52:55.788Z,53.37
2022-12-18T09:54:00.210Z,52.83
2022-12-18T09:55:14.257Z,55.25
2022-12-18T09:56:20.645Z,50.15
2022-12-18T09:57:23.496Z,51.53
2022-12-18T09:58:48.758Z,57.85
2022-12-18T09:59:54.270Z,57.78
2022-12-18T10:00:55.957Z,56.60
2022-12-18T10:01:57.906Z,51.20
2022-12-18T10:03:02.637Z,51.65
2022-12-18T10:04:05.976Z,50.53
2022-12-18T10:05:30.826Z,48.60
2022-12-18T10:06:50.670Z,45.03
2022-12-18T10:08:01.207Z,51.58
2022-12-18T10:09:04.884Z,54.30
2022-12-18T10:10:59.120Z,57.40
2022-12-18T10:12:04.711Z,52.85
2022-12-18T10:13:14.867Z,52.67
2022-12-18T10:14:30.723Z,51.03
2022-12-18T10:16:03.310Z,51.67
2022-12-18T10:17:26.493Z,47.35
2022-12-18T10:18:30.968Z,47.08
2022-12-18T10:20:00.938Z,47.25
2022-12-18T10:21:16.944Z,50.72
2022-12-18T10:22:21.137Z,45.95
2022-12-18T10:23:27.940Z,53.70
2022-12-18T10:24:53.554Z,48.03
2022-12-18T10:26:00.925Z,49.33
2022-12-18T10:27:19.351Z,48.30
2022-12-18T10:28:20.957Z,51.53
2022-12-18T10:29:22.689Z,47.42
2022-12-18T10:30:24.871Z,51.85
2022-12-18T10:31:26.695Z,57.03
2022-12-18T10:32:29.613Z,48.15
2022-12-18T10:33:32.849Z,47.88
2022-12-18T10:34:35.020Z,47.63
2022-12-18T10:35:36.594Z,47.38
2022-12-18T10:36:38.487Z,46.33
2022-12-18T10:37:40.127Z,50.28
2022-12-18T10:38:42.757Z,41.78
2022-12-18T10:39:44.791Z,47.10
2022-12-18T10:41:05.717Z,43.67
2022-12-18T10:42:20.298Z,42.45
2022-12-18T10:43:30.186Z,46.40
2022-12-18T10:44:31.762Z,45.65
2022-12-18T10:45:33.379Z,43.85
2022-12-18T10:46:34.974Z,40.50
2022-12-18T10:47:36.671Z,43.20
2022-12-18T10:48:47.425Z,49.00
2022-12-18T10:49:51.020Z,41.35
2022-12-18T10:52:23.900Z,46.83
2022-12-18T10:53:29.871Z,40.63
2022-12-18T10:54:31.921Z,47.53
2022-12-18T10:55:38.797Z,47.45
2022-12-18T10:56:40.563Z,43.63
2022-12-18T10:57:42.903Z,43.22
2022-12-18T10:58:44.772Z,45.15
2022-12-18T10:59:55.699Z,60.17
2022-12-18T11:01:07.938Z,41.78
2022-12-18T11:02:25.790Z,45.85
2022-12-18T11:04:06.377Z,44.63
2022-12-18T11:05:33.009Z,44.20
2022-12-18T11:06:34.636Z,46.72
2022-12-18T11:07:57.312Z,41.95
2022-12-18T11:09:06.589Z,49.85
2022-12-18T11:10:18.618Z,45.35
2022-12-18T11:11:23.700Z,49.58
2022-12-18T11:12:25.343Z,48.60
2022-12-18T11:13:28.546Z,47.15
2022-12-18T11:14:34.874Z,48.65
2022-12-18T11:15:36.481Z,51.33
2022-12-18T11:16:57.892Z,51.58
2022-12-18T11:18:05.320Z,58.28
2022-12-18T11:19:27.374Z,72.13
2022-12-18T11:20:35.574Z,46.42
2022-12-18T11:21:41.476Z,76.00
2022-12-18T11:22:43.062Z,50.53
2022-12-18T11:23:48.365Z,53.17
2022-12-18T11:25:30.012Z,46.88
2022-12-18T11:26:21.034Z,45.42
2022-12-18T11:27:22.690Z,52.75
2022-12-18T11:28:39.586Z,46.58
2022-12-18T11:29:46.433Z,48.25
2022-12-18T11:30:48.393Z,48.83
2022-12-18T11:31:50.005Z,49.92
2022-12-18T11:33:22.026Z,47.95
2022-12-18T11:34:29.938Z,52.83
2022-12-18T11:35:48.005Z,47.55
2022-12-18T11:36:49.789Z,51.33
2022-12-18T11:38:33.778Z,48.17
2022-12-18T11:39:36.610Z,45.90
2022-12-18T11:40:41.338Z,53.17
2022-12-18T11:42:13.079Z,50.57
2022-12-18T11:43:18.109Z,52.28
2022-12-18T11:44:30.935Z,48.15
2022-12-18T11:45:37.516Z,50.83
2022-12-18T11:46:42.082Z,46.55
2022-12-18T11:47:53.502Z,55.80
2022-12-18T11:48:58.245Z,51.75
2022-12-18T11:50:09.376Z,47.00
2022-12-18T11:51:13.914Z,48.28
2022-12-18T11:52:24.455Z,56.42
2022-12-18T11:53:26.936Z,57.40
2022-12-18T11:54:28.637Z,64.90
2022-12-18T11:55:45.280Z,76.20
2022-12-18T11:57:09.810Z,46.63
2022-12-18T11:58:39.354Z,44.65
2022-12-18T12:00:05.407Z,45.30
2022-12-18T12:01:28.062Z,47.63
2022-12-18T12:02:42.754Z,44.22
2022-12-18T12:04:18.960Z,51.33
2022-12-18T12:05:27.280Z,47.88
2022-12-18T12:06:47.564Z,42.28
2022-12-18T12:08:11.262Z,43.70
2022-12-18T12:09:31.629Z,42.03
2022-12-18T12:10:59.582Z,45.45
2022-12-18T12:12:28.679Z,43.70
2022-12-18T12:13:38.279Z,44.45
2022-12-18T12:14:52.991Z,48.20
2022-12-18T12:16:02.020Z,43.63
2022-12-18T12:17:15.186Z,45.08
2022-12-18T12:18:53.895Z,50.92
2022-12-18T12:20:10.007Z,44.00
2022-12-18T12:21:38.230Z,46.75
2022-12-18T12:22:43.425Z,37.10
2022-12-18T12:24:13.236Z,37.28
2022-12-18T12:25:18.063Z,38.35
2022-12-18T12:26:32.890Z,40.60
2022-12-18T12:27:34.668Z,40.93
2022-12-18T12:28:55.038Z,39.13
2022-12-18T12:30:05.752Z,45.67
2022-12-18T12:31:20.387Z,44.80
2022-12-18T12:32:50.885Z,41.00
2022-12-18T12:34:26.282Z,40.83
2022-12-18T12:35:52.498Z,37.80
2022-12-18T12:37:06.059Z,47.50
2022-12-18T12:38:27.456Z,45.45
2022-12-18T12:39:35.995Z,47.63
2022-12-18T12:40:52.418Z,39.37
2022-12-18T12:42:24.576Z,38.80
2022-12-18T12:43:51.160Z,44.28
2022-12-18T12:44:58.223Z,44.58
2022-12-18T12:46:09.072Z,41.63
2022-12-18T12:47:26.518Z,45.67
2022-12-18T12:48:50.446Z,42.63
2022-12-18T12:49:52.521Z,42.22
2022-12-18T12:50:54.115Z,37.33
2022-12-18T12:52:12.263Z,43.97
2022-12-18T12:53:37.544Z,45.60
2022-12-18T12:54:39.798Z,43.20
2022-12-18T12:55:41.731Z,48.05
2022-12-18T12:56:51.785Z,51.25
2022-12-18T12:58:14.914Z,43.47
2022-12-18T12:59:41.192Z,43.38
2022-12-18T13:00:51.623Z,39.97
2022-12-18T13:02:12.008Z,42.22
2022-12-18T13:03:28.405Z,47.00
2022-12-18T13:04:37.689Z,45.83
2022-12-18T13:05:53.853Z,40.70
2022-12-18T13:07:13.603Z,46.20
2022-12-18T13:10:13.290Z,44.78
2022-12-18T13:12:00.583Z,46.08
2022-12-18T13:13:03.932Z,42.17
2022-12-18T13:13:43.832Z,40.80
2022-12-18T13:14:05.522Z,42.88
2022-12-18T13:15:21.224Z,52.85
2022-12-18T13:16:25.840Z,46.03
2022-12-18T13:17:30.720Z,50.42
2022-12-18T13:18:33.261Z,51.97
2022-12-18T13:19:34.872Z,47.22
2022-12-18T13:20:52.434Z,45.95
2022-12-18T13:21:56.954Z,46.35
2022-12-18T13:22:58.617Z,40.95
2022-12-18T13:24:16.694Z,42.10
2022-12-18T13:25:35.552Z,40.58
2022-12-18T13:26:37.500Z,38.70
2022-12-18T13:27:41.793Z,40.13
2022-12-18T13:28:47.054Z,47.15
2022-12-18T13:29:48.905Z,43.33
2022-12-18T13:30:57.243Z,41.05
2022-12-18T13:32:00.125Z,43.35
2022-12-18T13:33:19.568Z,42.53
2022-12-18T13:35:47.147Z,46.13
2022-12-18T13:36:50.587Z,40.92
2022-12-18T13:37:53.876Z,40.07
2022-12-18T13:39:28.878Z,46.92
2022-12-18T13:40:40.742Z,44.50
2022-12-18T13:41:43.013Z,44.25
2022-12-18T13:43:03.177Z,44.95
2022-12-18T13:44:27.617Z,41.40
2022-12-18T13:45:40.642Z,43.25
2022-12-18T13:46:46.745Z,43.17
2022-12-18T13:47:48.329Z,37.45
2022-12-18T13:49:00.923Z,40.03
2022-12-18T13:50:04.638Z,41.17
2022-12-18T13:51:09.536Z,45.67
2022-12-18T13:52:36.021Z,43.50
2022-12-18T13:53:41.026Z,44.75
2022-12-18T13:54:42.967Z,43.58
2022-12-18T13:55:46.077Z,44.47
2022-12-18T13:56:48.480Z,41.13
2022-12-18T13:57:50.173Z,45.35
2022-12-18T13:59:18.854Z,47.30
2022-12-18T14:00:23.925Z,44.35
2022-12-18T14:01:25.732Z,46.37
2022-12-18T14:02:28.752Z,46.03
2022-12-18T14:03:31.622Z,42.70
2022-12-18T14:04:35.024Z,44.70
2022-12-18T14:05:38.610Z,52.88
2022-12-18T14:06:42.792Z,51.38
2022-12-18T14:07:48.269Z,48.63
2022-12-18T14:08:51.983Z,50.90
2022-12-18T14:10:01.871Z,45.72
2022-12-18T14:11:08.117Z,42.05
2022-12-18T14:12:36.802Z,43.83
2022-12-18T14:13:39.972Z,43.33
2022-12-18T14:14:46.274Z,40.22
2022-12-18T14:15:48.550Z,43.85
2022-12-18T14:16:50.262Z,48.05
2022-12-18T14:17:56.273Z,39.53